Terminal Aerodrome Forecast
Issued by NWS Blacksburg, VA

Home | Current Version | Previous Version | Text Only | Print | Product List | Glossary On
Versions: 1 2 3 4 5 6 7 8 9 10 11 12 13 14 15 16 17 18 19 20 21 22 23 24 25 26 27 28 29 30 31 32 33 34 35 36 37 38 39
000
FTUS41 KRNK 261733
TAFBLF
TAF
KBLF 261733Z 2618/2718 26005KT 2SM -SN BR OVC003
     FM262200 27005KT 5SM BR OVC005
     FM270400 27003KT 1SM -SN OVC002
     FM271500 31010KT 6SM -SHSN OVC012=

USA.gov is the U.S. government's official web portal to all federal, state and local government web resources and services.